sensor_id;sensor_type;location;lat;lon;timestamp;P1;durP1;ratioP1;P2;durP2;ratioP2
6864;SDS011;3471;49.678;8.388;2022-07-23T00:00:13;6.95;;;5.03;;
6864;SDS011;3471;49.678;8.388;2022-07-23T00:02:39;11.40;;;6.30;;
6864;SDS011;3471;49.678;8.388;2022-07-23T00:05:05;5.80;;;4.60;;
6864;SDS011;3471;49.678;8.388;2022-07-23T00:07:31;5.15;;;4.25;;
6864;SDS011;3471;49.678;8.388;2022-07-23T00:09:57;7.00;;;6.23;;
6864;SDS011;3471;49.678;8.388;2022-07-23T00:12:22;8.20;;;6.10;;
6864;SDS011;3471;49.678;8.388;2022-07-23T00:14:48;8.10;;;5.50;;
6864;SDS011;3471;49.678;8.388;2022-07-23T00:17:14;6.07;;;4.43;;
6864;SDS011;3471;49.678;8.388;2022-07-23T00:19:40;7.07;;;5.10;;
6864;SDS011;3471;49.678;8.388;2022-07-23T00:22:05;8.37;;;6.50;;
6864;SDS011;3471;49.678;8.388;2022-07-23T00:24:31;6.87;;;4.90;;
6864;SDS011;3471;49.678;8.388;2022-07-23T00:26:57;5.07;;;4.33;;
6864;SDS011;3471;49.678;8.388;2022-07-23T00:29:22;7.38;;;5.35;;
6864;SDS011;3471;49.678;8.388;2022-07-23T00:31:48;6.03;;;5.43;;
6864;SDS011;3471;49.678;8.388;2022-07-23T00:34:13;9.02;;;5.53;;
6864;SDS011;3471;49.678;8.388;2022-07-23T00:36:39;5.23;;;4.83;;
6864;SDS011;3471;49.678;8.388;2022-07-23T00:39:05;5.40;;;4.90;;
6864;SDS011;3471;49.678;8.388;2022-07-23T00:41:30;7.77;;;6.97;;
6864;SDS011;3471;49.678;8.388;2022-07-23T00:44:13;6.10;;;5.20;;
6864;SDS011;3471;49.678;8.388;2022-07-23T00:46:44;6.38;;;5.07;;
6864;SDS011;3471;49.678;8.388;2022-07-23T00:49:11;16.05;;;5.10;;
6864;SDS011;3471;49.678;8.388;2022-07-23T00:51:37;10.27;;;6.40;;
6864;SDS011;3471;49.678;8.388;2022-07-23T00:54:02;5.60;;;4.68;;
6864;SDS011;3471;49.678;8.388;2022-07-23T00:56:29;12.23;;;6.22;;
6864;SDS011;3471;49.678;8.388;2022-07-23T00:58:55;9.05;;;6.97;;
6864;SDS011;3471;49.678;8.388;2022-07-23T01:01:21;6.80;;;6.10;;
6864;SDS011;3471;49.678;8.388;2022-07-23T01:03:47;8.20;;;6.00;;
6864;SDS011;3471;49.678;8.388;2022-07-23T01:06:13;15.33;;;5.50;;
6864;SDS011;3471;49.678;8.388;2022-07-23T01:08:39;5.68;;;5.07;;
6864;SDS011;3471;49.678;8.388;2022-07-23T01:11:06;5.90;;;5.35;;
6864;SDS011;3471;49.678;8.388;2022-07-23T01:13:32;8.38;;;5.63;;
6864;SDS011;3471;49.678;8.388;2022-07-23T01:15:57;6.55;;;5.68;;
6864;SDS011;3471;49.678;8.388;2022-07-23T01:18:23;9.73;;;4.60;;
6864;SDS011;3471;49.678;8.388;2022-07-23T01:20:48;4.10;;;3.53;;
6864;SDS011;3471;49.678;8.388;2022-07-23T01:23:14;6.78;;;5.15;;
6864;SDS011;3471;49.678;8.388;2022-07-23T01:25:47;7.20;;;4.85;;
6864;SDS011;3471;49.678;8.388;2022-07-23T01:28:21;5.83;;;4.60;;
6864;SDS011;3471;49.678;8.388;2022-07-23T01:30:47;7.55;;;5.72;;
6864;SDS011;3471;49.678;8.388;2022-07-23T01:33:13;7.85;;;5.72;;
6864;SDS011;3471;49.678;8.388;2022-07-23T01:35:39;7.68;;;6.05;;
6864;SDS011;3471;49.678;8.388;2022-07-23T01:38:05;7.50;;;6.03;;
6864;SDS011;3471;49.678;8.388;2022-07-23T01:40:30;6.07;;;5.45;;
6864;SDS011;3471;49.678;8.388;2022-07-23T01:42:56;8.80;;;7.20;;
6864;SDS011;3471;49.678;8.388;2022-07-23T01:45:22;5.70;;;4.90;;
6864;SDS011;3471;49.678;8.388;2022-07-23T01:47:48;18.50;;;6.53;;
6864;SDS011;3471;49.678;8.388;2022-07-23T01:50:14;14.07;;;5.93;;
6864;SDS011;3471;49.678;8.388;2022-07-23T01:52:39;8.88;;;7.03;;
6864;SDS011;3471;49.678;8.388;2022-07-23T01:55:05;8.02;;;6.13;;
6864;SDS011;3471;49.678;8.388;2022-07-23T01:57:32;10.18;;;7.60;;
6864;SDS011;3471;49.678;8.388;2022-07-23T01:59:58;6.77;;;6.17;;
6864;SDS011;3471;49.678;8.388;2022-07-23T02:02:24;8.80;;;7.87;;
6864;SDS011;3471;49.678;8.388;2022-07-23T02:04:49;6.37;;;5.87;;
6864;SDS011;3471;49.678;8.388;2022-07-23T02:07:15;10.93;;;6.10;;
6864;SDS011;3471;49.678;8.388;2022-07-23T02:09:41;11.60;;;6.63;;
6864;SDS011;3471;49.678;8.388;2022-07-23T02:12:07;6.50;;;5.90;;
6864;SDS011;3471;49.678;8.388;2022-07-23T02:14:32;6.47;;;5.80;;
6864;SDS011;3471;49.678;8.388;2022-07-23T02:16:58;6.83;;;6.17;;
6864;SDS011;3471;49.678;8.388;2022-07-23T02:19:24;11.00;;;6.23;;
6864;SDS011;3471;49.678;8.388;2022-07-23T02:21:50;5.43;;;4.85;;
6864;SDS011;3471;49.678;8.388;2022-07-23T02:24:15;9.97;;;7.47;;
6864;SDS011;3471;49.678;8.388;2022-07-23T02:26:41;6.72;;;6.03;;
6864;SDS011;3471;49.678;8.388;2022-07-23T02:29:07;7.10;;;5.50;;
6864;SDS011;3471;49.678;8.388;2022-07-23T02:31:33;8.50;;;6.20;;
6864;SDS011;3471;49.678;8.388;2022-07-23T02:33:59;9.63;;;7.60;;
6864;SDS011;3471;49.678;8.388;2022-07-23T02:36:25;6.95;;;4.95;;
6864;SDS011;3471;49.678;8.388;2022-07-23T02:38:51;6.72;;;5.80;;
6864;SDS011;3471;49.678;8.388;2022-07-23T02:41:16;7.53;;;5.47;;
6864;SDS011;3471;49.678;8.388;2022-07-23T02:43:42;6.80;;;5.40;;
6864;SDS011;3471;49.678;8.388;2022-07-23T02:46:08;6.93;;;6.20;;
6864;SDS011;3471;49.678;8.388;2022-07-23T02:48:33;6.80;;;4.63;;
6864;SDS011;3471;49.678;8.388;2022-07-23T02:50:59;11.70;;;7.73;;
6864;SDS011;3471;49.678;8.388;2022-07-23T02:55:50;7.93;;;6.60;;
6864;SDS011;3471;49.678;8.388;2022-07-23T02:58:15;10.20;;;5.95;;
6864;SDS011;3471;49.678;8.388;2022-07-23T03:00:41;7.63;;;5.80;;
6864;SDS011;3471;49.678;8.388;2022-07-23T03:03:07;11.43;;;5.75;;
6864;SDS011;3471;49.678;8.388;2022-07-23T03:05:33;5.30;;;4.80;;
6864;SDS011;3471;49.678;8.388;2022-07-23T03:07:59;10.20;;;5.93;;
6864;SDS011;3471;49.678;8.388;2022-07-23T03:10:25;9.30;;;7.90;;
6864;SDS011;3471;49.678;8.388;2022-07-23T03:12:51;8.77;;;6.57;;
6864;SDS011;3471;49.678;8.388;2022-07-23T03:15:16;7.88;;;6.10;;
6864;SDS011;3471;49.678;8.388;2022-07-23T03:17:42;7.50;;;5.43;;
6864;SDS011;3471;49.678;8.388;2022-07-23T03:20:08;7.32;;;5.75;;
6864;SDS011;3471;49.678;8.388;2022-07-23T03:22:34;6.82;;;4.97;;
6864;SDS011;3471;49.678;8.388;2022-07-23T03:25:00;7.82;;;7.03;;
6864;SDS011;3471;49.678;8.388;2022-07-23T03:27:27;13.15;;;6.95;;
6864;SDS011;3471;49.678;8.388;2022-07-23T03:29:54;7.25;;;6.20;;
6864;SDS011;3471;49.678;8.388;2022-07-23T03:32:22;6.45;;;5.80;;
6864;SDS011;3471;49.678;8.388;2022-07-23T03:34:48;8.13;;;6.78;;
6864;SDS011;3471;49.678;8.388;2022-07-23T03:37:14;7.20;;;4.70;;
6864;SDS011;3471;49.678;8.388;2022-07-23T03:39:40;10.75;;;6.45;;
6864;SDS011;3471;49.678;8.388;2022-07-23T03:42:06;19.60;;;6.80;;
6864;SDS011;3471;49.678;8.388;2022-07-23T03:44:32;8.23;;;5.45;;
6864;SDS011;3471;49.678;8.388;2022-07-23T03:46:58;9.10;;;6.30;;
6864;SDS011;3471;49.678;8.388;2022-07-23T03:49:24;10.88;;;6.28;;
6864;SDS011;3471;49.678;8.388;2022-07-23T03:51:50;7.25;;;6.07;;
6864;SDS011;3471;49.678;8.388;2022-07-23T03:54:15;8.63;;;7.70;;
6864;SDS011;3471;49.678;8.388;2022-07-23T03:56:41;9.82;;;6.40;;
6864;SDS011;3471;49.678;8.388;2022-07-23T03:59:07;8.00;;;6.60;;
6864;SDS011;3471;49.678;8.388;2022-07-23T04:01:34;11.55;;;7.38;;
6864;SDS011;3471;49.678;8.388;2022-07-23T04:03:59;7.63;;;6.13;;
6864;SDS011;3471;49.678;8.388;2022-07-23T04:06:25;11.03;;;6.90;;
6864;SDS011;3471;49.678;8.388;2022-07-23T04:08:51;7.60;;;5.90;;
6864;SDS011;3471;49.678;8.388;2022-07-23T04:11:16;9.83;;;7.90;;
6864;SDS011;3471;49.678;8.388;2022-07-23T04:13:42;13.57;;;7.87;;
6864;SDS011;3471;49.678;8.388;2022-07-23T04:16:08;8.93;;;7.50;;
6864;SDS011;3471;49.678;8.388;2022-07-23T04:18:33;17.50;;;8.27;;
6864;SDS011;3471;49.678;8.388;2022-07-23T04:20:59;10.20;;;7.90;;
6864;SDS011;3471;49.678;8.388;2022-07-23T04:23:24;10.90;;;7.57;;
6864;SDS011;3471;49.678;8.388;2022-07-23T04:25:50;30.75;;;7.13;;
6864;SDS011;3471;49.678;8.388;2022-07-23T04:28:15;10.25;;;8.30;;
6864;SDS011;3471;49.678;8.388;2022-07-23T04:30:41;9.90;;;7.10;;
6864;SDS011;3471;49.678;8.388;2022-07-23T04:33:07;14.70;;;8.80;;
6864;SDS011;3471;49.678;8.388;2022-07-23T04:35:33;13.45;;;8.75;;
6864;SDS011;3471;49.678;8.388;2022-07-23T04:37:59;13.20;;;7.30;;
6864;SDS011;3471;49.678;8.388;2022-07-23T04:40:25;11.33;;;7.43;;
6864;SDS011;3471;49.678;8.388;2022-07-23T04:42:51;10.27;;;7.60;;
6864;SDS011;3471;49.678;8.388;2022-07-23T04:45:17;8.10;;;6.65;;
6864;SDS011;3471;49.678;8.388;2022-07-23T04:47:42;8.00;;;7.00;;
6864;SDS011;3471;49.678;8.388;2022-07-23T04:50:08;10.17;;;8.13;;
6864;SDS011;3471;49.678;8.388;2022-07-23T04:52:34;8.10;;;7.30;;
6864;SDS011;3471;49.678;8.388;2022-07-23T04:54:59;15.43;;;7.67;;
6864;SDS011;3471;49.678;8.388;2022-07-23T04:57:25;8.60;;;7.77;;
6864;SDS011;3471;49.678;8.388;2022-07-23T04:59:51;10.13;;;5.70;;
6864;SDS011;3471;49.678;8.388;2022-07-23T05:02:16;10.80;;;8.93;;
6864;SDS011;3471;49.678;8.388;2022-07-23T05:04:42;9.20;;;7.53;;
6864;SDS011;3471;49.678;8.388;2022-07-23T05:07:07;11.40;;;9.30;;
6864;SDS011;3471;49.678;8.388;2022-07-23T05:09:33;11.40;;;8.93;;
6864;SDS011;3471;49.678;8.388;2022-07-23T05:11:59;13.67;;;12.27;;
6864;SDS011;3471;49.678;8.388;2022-07-23T05:14:25;14.37;;;13.00;;
6864;SDS011;3471;49.678;8.388;2022-07-23T05:16:50;20.53;;;11.33;;
6864;SDS011;3471;49.678;8.388;2022-07-23T05:19:16;16.90;;;15.60;;
6864;SDS011;3471;49.678;8.388;2022-07-23T05:21:42;17.83;;;15.23;;
6864;SDS011;3471;49.678;8.388;2022-07-23T05:24:07;14.60;;;12.60;;
6864;SDS011;3471;49.678;8.388;2022-07-23T05:26:33;12.73;;;11.83;;
6864;SDS011;3471;49.678;8.388;2022-07-23T05:28:58;23.37;;;21.63;;
6864;SDS011;3471;49.678;8.388;2022-07-23T05:31:24;14.50;;;13.53;;
6864;SDS011;3471;49.678;8.388;2022-07-23T05:33:50;20.50;;;18.93;;
6864;SDS011;3471;49.678;8.388;2022-07-23T05:36:15;10.32;;;9.32;;
6864;SDS011;3471;49.678;8.388;2022-07-23T05:38:41;8.85;;;7.65;;
6864;SDS011;3471;49.678;8.388;2022-07-23T05:41:07;9.00;;;8.10;;
6864;SDS011;3471;49.678;8.388;2022-07-23T05:43:32;8.00;;;7.20;;
6864;SDS011;3471;49.678;8.388;2022-07-23T05:45:58;13.82;;;9.32;;
6864;SDS011;3471;49.678;8.388;2022-07-23T05:48:23;12.73;;;9.40;;
6864;SDS011;3471;49.678;8.388;2022-07-23T05:50:49;11.77;;;10.57;;
6864;SDS011;3471;49.678;8.388;2022-07-23T05:53:15;10.23;;;9.27;;
6864;SDS011;3471;49.678;8.388;2022-07-23T05:55:40;11.83;;;8.90;;
6864;SDS011;3471;49.678;8.388;2022-07-23T05:58:06;10.73;;;9.70;;
6864;SDS011;3471;49.678;8.388;2022-07-23T06:00:32;9.30;;;7.90;;
6864;SDS011;3471;49.678;8.388;2022-07-23T06:02:57;7.27;;;5.83;;
6864;SDS011;3471;49.678;8.388;2022-07-23T06:05:23;8.57;;;7.77;;
6864;SDS011;3471;49.678;8.388;2022-07-23T06:07:49;13.37;;;7.27;;
6864;SDS011;3471;49.678;8.388;2022-07-23T06:10:15;7.68;;;6.72;;
6864;SDS011;3471;49.678;8.388;2022-07-23T06:12:41;12.40;;;8.43;;
6864;SDS011;3471;49.678;8.388;2022-07-23T06:15:07;24.57;;;9.87;;
6864;SDS011;3471;49.678;8.388;2022-07-23T06:17:33;26.63;;;24.85;;
6864;SDS011;3471;49.678;8.388;2022-07-23T06:19:59;9.70;;;7.68;;
6864;SDS011;3471;49.678;8.388;2022-07-23T06:22:24;11.18;;;8.25;;
6864;SDS011;3471;49.678;8.388;2022-07-23T06:24:50;38.95;;;36.15;;
6864;SDS011;3471;49.678;8.388;2022-07-23T06:27:17;11.07;;;8.90;;
6864;SDS011;3471;49.678;8.388;2022-07-23T06:29:42;11.70;;;9.13;;
6864;SDS011;3471;49.678;8.388;2022-07-23T06:32:08;11.40;;;10.20;;
6864;SDS011;3471;49.678;8.388;2022-07-23T06:34:34;9.85;;;8.85;;
6864;SDS011;3471;49.678;8.388;2022-07-23T06:36:59;12.70;;;9.18;;
6864;SDS011;3471;49.678;8.388;2022-07-23T06:39:25;8.65;;;7.85;;
6864;SDS011;3471;49.678;8.388;2022-07-23T06:41:51;9.23;;;8.15;;
6864;SDS011;3471;49.678;8.388;2022-07-23T06:44:17;10.60;;;5.18;;
6864;SDS011;3471;49.678;8.388;2022-07-23T06:46:43;9.85;;;6.72;;
6864;SDS011;3471;49.678;8.388;2022-07-23T06:49:08;11.70;;;7.97;;
6864;SDS011;3471;49.678;8.388;2022-07-23T06:51:34;11.82;;;9.55;;
6864;SDS011;3471;49.678;8.388;2022-07-23T06:54:00;8.65;;;7.10;;
6864;SDS011;3471;49.678;8.388;2022-07-23T06:56:26;17.57;;;15.87;;
6864;SDS011;3471;49.678;8.388;2022-07-23T06:58:51;28.30;;;26.20;;
6864;SDS011;3471;49.678;8.388;2022-07-23T07:01:17;13.18;;;11.93;;
6864;SDS011;3471;49.678;8.388;2022-07-23T07:03:44;20.50;;;18.80;;
6864;SDS011;3471;49.678;8.388;2022-07-23T07:06:09;17.57;;;16.13;;
6864;SDS011;3471;49.678;8.388;2022-07-23T07:08:35;20.05;;;18.30;;
6864;SDS011;3471;49.678;8.388;2022-07-23T07:11:01;26.27;;;24.63;;
6864;SDS011;3471;49.678;8.388;2022-07-23T07:13:26;40.30;;;38.13;;
6864;SDS011;3471;49.678;8.388;2022-07-23T07:15:52;82.47;;;79.20;;
6864;SDS011;3471;49.678;8.388;2022-07-23T07:18:17;61.77;;;58.40;;
6864;SDS011;3471;49.678;8.388;2022-07-23T07:20:43;24.33;;;22.48;;
6864;SDS011;3471;49.678;8.388;2022-07-23T07:23:09;31.20;;;29.70;;
6864;SDS011;3471;49.678;8.388;2022-07-23T07:25:34;47.50;;;45.30;;
6864;SDS011;3471;49.678;8.388;2022-07-23T07:28:00;24.27;;;22.87;;
6864;SDS011;3471;49.678;8.388;2022-07-23T07:30:26;10.20;;;9.20;;
6864;SDS011;3471;49.678;8.388;2022-07-23T07:32:51;15.40;;;14.10;;
6864;SDS011;3471;49.678;8.388;2022-07-23T07:35:17;11.37;;;8.47;;
6864;SDS011;3471;49.678;8.388;2022-07-23T07:37:43;10.30;;;8.83;;
6864;SDS011;3471;49.678;8.388;2022-07-23T07:40:08;8.57;;;6.18;;
6864;SDS011;3471;49.678;8.388;2022-07-23T07:42:34;8.65;;;7.85;;
6864;SDS011;3471;49.678;8.388;2022-07-23T07:45:08;7.80;;;7.00;;
6864;SDS011;3471;49.678;8.388;2022-07-23T07:47:34;8.10;;;6.60;;
6864;SDS011;3471;49.678;8.388;2022-07-23T07:49:59;9.20;;;6.93;;
6864;SDS011;3471;49.678;8.388;2022-07-23T07:52:25;16.52;;;8.77;;
6864;SDS011;3471;49.678;8.388;2022-07-23T07:54:51;11.25;;;7.13;;
6864;SDS011;3471;49.678;8.388;2022-07-23T07:57:17;19.92;;;18.75;;
6864;SDS011;3471;49.678;8.388;2022-07-23T07:59:42;7.13;;;6.53;;
6864;SDS011;3471;49.678;8.388;2022-07-23T08:02:08;10.70;;;8.57;;
6864;SDS011;3471;49.678;8.388;2022-07-23T08:04:33;9.37;;;8.57;;
6864;SDS011;3471;49.678;8.388;2022-07-23T08:06:59;11.07;;;9.40;;
6864;SDS011;3471;49.678;8.388;2022-07-23T08:09:25;57.38;;;54.10;;
6864;SDS011;3471;49.678;8.388;2022-07-23T08:11:50;215.90;;;204.07;;
6864;SDS011;3471;49.678;8.388;2022-07-23T08:14:16;10.02;;;8.23;;
6864;SDS011;3471;49.678;8.388;2022-07-23T08:16:43;17.83;;;11.50;;
6864;SDS011;3471;49.678;8.388;2022-07-23T08:19:08;12.03;;;7.80;;
6864;SDS011;3471;49.678;8.388;2022-07-23T08:21:34;416.20;;;397.10;;
6864;SDS011;3471;49.678;8.388;2022-07-23T08:23:59;9.35;;;8.52;;
6864;SDS011;3471;49.678;8.388;2022-07-23T08:26:25;10.70;;;8.75;;
6864;SDS011;3471;49.678;8.388;2022-07-23T08:28:51;14.07;;;12.77;;
6864;SDS011;3471;49.678;8.388;2022-07-23T08:31:16;13.70;;;12.43;;
6864;SDS011;3471;49.678;8.388;2022-07-23T08:33:42;16.60;;;15.38;;
6864;SDS011;3471;49.678;8.388;2022-07-23T08:36:08;10.43;;;9.43;;
6864;SDS011;3471;49.678;8.388;2022-07-23T08:38:34;10.95;;;7.28;;
6864;SDS011;3471;49.678;8.388;2022-07-23T08:41:00;8.23;;;7.40;;
6864;SDS011;3471;49.678;8.388;2022-07-23T08:43:30;8.77;;;7.87;;
6864;SDS011;3471;49.678;8.388;2022-07-23T08:45:58;20.60;;;11.82;;
6864;SDS011;3471;49.678;8.388;2022-07-23T08:48:25;12.93;;;11.75;;
6864;SDS011;3471;49.678;8.388;2022-07-23T08:50:53;21.60;;;20.20;;
6864;SDS011;3471;49.678;8.388;2022-07-23T08:53:21;9.00;;;8.13;;
6864;SDS011;3471;49.678;8.388;2022-07-23T08:55:49;11.40;;;8.70;;
6864;SDS011;3471;49.678;8.388;2022-07-23T08:58:17;11.15;;;9.90;;
6864;SDS011;3471;49.678;8.388;2022-07-23T09:00:44;27.43;;;25.17;;
6864;SDS011;3471;49.678;8.388;2022-07-23T09:03:20;14.45;;;13.35;;
6864;SDS011;3471;49.678;8.388;2022-07-23T09:05:51;11.70;;;10.60;;
6864;SDS011;3471;49.678;8.388;2022-07-23T09:08:22;7.95;;;6.88;;
6864;SDS011;3471;49.678;8.388;2022-07-23T09:19:03;31.13;;;29.48;;
6864;SDS011;3471;49.678;8.388;2022-07-23T09:21:31;80.35;;;76.60;;
6864;SDS011;3471;49.678;8.388;2022-07-23T09:23:59;23.95;;;22.67;;
6864;SDS011;3471;49.678;8.388;2022-07-23T09:26:33;18.55;;;17.30;;
6864;SDS011;3471;49.678;8.388;2022-07-23T09:29:03;16.93;;;15.43;;
6864;SDS011;3471;49.678;8.388;2022-07-23T09:31:33;11.80;;;10.70;;
6864;SDS011;3471;49.678;8.388;2022-07-23T09:34:09;7.80;;;6.50;;
6864;SDS011;3471;49.678;8.388;2022-07-23T09:36:35;9.00;;;6.10;;
6864;SDS011;3471;49.678;8.388;2022-07-23T09:39:00;9.13;;;6.47;;
6864;SDS011;3471;49.678;8.388;2022-07-23T09:41:33;8.15;;;6.43;;
6864;SDS011;3471;49.678;8.388;2022-07-23T09:44:06;11.35;;;8.48;;
6864;SDS011;3471;49.678;8.388;2022-07-23T09:46:33;8.68;;;7.60;;
6864;SDS011;3471;49.678;8.388;2022-07-23T09:48:58;8.15;;;6.72;;
6864;SDS011;3471;49.678;8.388;2022-07-23T09:54:21;11.55;;;9.13;;
6864;SDS011;3471;49.678;8.388;2022-07-23T09:56:55;16.90;;;9.23;;
6864;SDS011;3471;49.678;8.388;2022-07-23T09:59:23;13.35;;;8.77;;
6864;SDS011;3471;49.678;8.388;2022-07-23T10:01:51;8.55;;;7.30;;
6864;SDS011;3471;49.678;8.388;2022-07-23T10:04:22;7.85;;;7.05;;
6864;SDS011;3471;49.678;8.388;2022-07-23T10:06:49;8.38;;;7.30;;
6864;SDS011;3471;49.678;8.388;2022-07-23T10:09:22;10.23;;;7.90;;
6864;SDS011;3471;49.678;8.388;2022-07-23T10:11:50;18.33;;;9.65;;
6864;SDS011;3471;49.678;8.388;2022-07-23T10:14:19;12.93;;;10.57;;
6864;SDS011;3471;49.678;8.388;2022-07-23T10:16:45;11.37;;;8.87;;
6864;SDS011;3471;49.678;8.388;2022-07-23T10:19:12;9.40;;;8.45;;
6864;SDS011;3471;49.678;8.388;2022-07-23T10:21:52;7.50;;;6.10;;
6864;SDS011;3471;49.678;8.388;2022-07-23T10:24:46;10.43;;;9.53;;
6864;SDS011;3471;49.678;8.388;2022-07-23T10:30:09;16.30;;;15.40;;
6864;SDS011;3471;49.678;8.388;2022-07-23T10:38:33;11.02;;;10.02;;
6864;SDS011;3471;49.678;8.388;2022-07-23T10:41:08;14.20;;;13.02;;
6864;SDS011;3471;49.678;8.388;2022-07-23T10:43:33;43.20;;;40.90;;
6864;SDS011;3471;49.678;8.388;2022-07-23T10:46:44;21.88;;;20.48;;
6864;SDS011;3471;49.678;8.388;2022-07-23T10:49:03;13.73;;;12.55;;
6864;SDS011;3471;49.678;8.388;2022-07-23T10:57:15;16.10;;;14.97;;
6864;SDS011;3471;49.678;8.388;2022-07-23T11:02:33;16.70;;;15.10;;
6864;SDS011;3471;49.678;8.388;2022-07-23T11:05:03;17.45;;;15.82;;
6864;SDS011;3471;49.678;8.388;2022-07-23T11:07:57;11.80;;;10.70;;
6864;SDS011;3471;49.678;8.388;2022-07-23T11:10:34;13.95;;;13.00;;
6864;SDS011;3471;49.678;8.388;2022-07-23T11:24:03;20.42;;;18.92;;
6864;SDS011;3471;49.678;8.388;2022-07-23T11:31:57;22.08;;;20.48;;
6864;SDS011;3471;49.678;8.388;2022-07-23T11:37:03;25.17;;;23.77;;
6864;SDS011;3471;49.678;8.388;2022-07-23T11:39:31;29.45;;;27.60;;
6864;SDS011;3471;49.678;8.388;2022-07-23T11:41:58;41.15;;;39.35;;
6864;SDS011;3471;49.678;8.388;2022-07-23T11:44:34;28.48;;;26.88;;
6864;SDS011;3471;49.678;8.388;2022-07-23T11:47:02;39.92;;;37.78;;
6864;SDS011;3471;49.678;8.388;2022-07-23T11:49:30;16.00;;;14.70;;
6864;SDS011;3471;49.678;8.388;2022-07-23T11:52:09;74.63;;;71.38;;
6864;SDS011;3471;49.678;8.388;2022-07-23T11:57:13;18.13;;;16.85;;
6864;SDS011;3471;49.678;8.388;2022-07-23T11:59:39;21.40;;;19.80;;
6864;SDS011;3471;49.678;8.388;2022-07-23T12:02:06;12.73;;;11.65;;
6864;SDS011;3471;49.678;8.388;2022-07-23T12:04:38;22.15;;;20.65;;
6864;SDS011;3471;49.678;8.388;2022-07-23T12:07:24;40.50;;;37.35;;
6864;SDS011;3471;49.678;8.388;2022-07-23T12:10:02;38.83;;;37.17;;
6864;SDS011;3471;49.678;8.388;2022-07-23T12:15:30;24.50;;;23.10;;
6864;SDS011;3471;49.678;8.388;2022-07-23T12:17:59;6.80;;;6.10;;
6864;SDS011;3471;49.678;8.388;2022-07-23T12:20:28;6.32;;;5.72;;
6864;SDS011;3471;49.678;8.388;2022-07-23T12:22:59;6.97;;;4.43;;
6864;SDS011;3471;49.678;8.388;2022-07-23T12:25:27;5.57;;;4.97;;
6864;SDS011;3471;49.678;8.388;2022-07-23T12:28:02;6.78;;;5.78;;
6864;SDS011;3471;49.678;8.388;2022-07-23T12:33:03;7.00;;;6.35;;
6864;SDS011;3471;49.678;8.388;2022-07-23T12:38:07;5.90;;;5.40;;
6864;SDS011;3471;49.678;8.388;2022-07-23T12:40:36;11.90;;;5.55;;
6864;SDS011;3471;49.678;8.388;2022-07-23T12:43:12;6.55;;;5.13;;
6864;SDS011;3471;49.678;8.388;2022-07-23T12:51:00;9.07;;;5.60;;
6864;SDS011;3471;49.678;8.388;2022-07-23T12:53:44;8.77;;;5.75;;
6864;SDS011;3471;49.678;8.388;2022-07-23T12:56:16;8.07;;;6.13;;
6864;SDS011;3471;49.678;8.388;2022-07-23T13:06:27;13.07;;;5.30;;
6864;SDS011;3471;49.678;8.388;2022-07-23T13:08:54;5.53;;;5.03;;
6864;SDS011;3471;49.678;8.388;2022-07-23T13:11:19;5.87;;;5.33;;
6864;SDS011;3471;49.678;8.388;2022-07-23T13:13:45;6.20;;;5.70;;
6864;SDS011;3471;49.678;8.388;2022-07-23T13:16:11;6.73;;;5.80;;
6864;SDS011;3471;49.678;8.388;2022-07-23T13:18:36;5.37;;;4.63;;
6864;SDS011;3471;49.678;8.388;2022-07-23T13:21:02;7.18;;;6.57;;
6864;SDS011;3471;49.678;8.388;2022-07-23T13:23:28;7.28;;;6.35;;
6864;SDS011;3471;49.678;8.388;2022-07-23T13:25:54;7.23;;;5.27;;
6864;SDS011;3471;49.678;8.388;2022-07-23T13:28:20;6.93;;;5.15;;
6864;SDS011;3471;49.678;8.388;2022-07-23T13:30:47;5.95;;;4.93;;
6864;SDS011;3471;49.678;8.388;2022-07-23T13:33:15;6.35;;;4.93;;
6864;SDS011;3471;49.678;8.388;2022-07-23T13:35:42;6.37;;;5.67;;
6864;SDS011;3471;49.678;8.388;2022-07-23T13:38:08;6.43;;;5.80;;
6864;SDS011;3471;49.678;8.388;2022-07-23T13:40:39;4.78;;;4.30;;
6864;SDS011;3471;49.678;8.388;2022-07-23T13:43:10;4.78;;;4.07;;
6864;SDS011;3471;49.678;8.388;2022-07-23T13:45:37;6.38;;;5.00;;
6864;SDS011;3471;49.678;8.388;2022-07-23T13:48:03;7.35;;;6.15;;
6864;SDS011;3471;49.678;8.388;2022-07-23T13:50:30;8.48;;;6.20;;
6864;SDS011;3471;49.678;8.388;2022-07-23T13:52:55;7.37;;;6.67;;
6864;SDS011;3471;49.678;8.388;2022-07-23T13:55:21;8.80;;;6.38;;
6864;SDS011;3471;49.678;8.388;2022-07-23T13:57:47;6.10;;;5.25;;
6864;SDS011;3471;49.678;8.388;2022-07-23T14:00:13;8.40;;;4.60;;
6864;SDS011;3471;49.678;8.388;2022-07-23T14:02:40;7.40;;;5.80;;
6864;SDS011;3471;49.678;8.388;2022-07-23T14:05:07;6.75;;;5.15;;
6864;SDS011;3471;49.678;8.388;2022-07-23T14:07:34;6.30;;;5.63;;
6864;SDS011;3471;49.678;8.388;2022-07-23T14:10:01;6.45;;;5.57;;
6864;SDS011;3471;49.678;8.388;2022-07-23T14:12:31;9.20;;;4.97;;
6864;SDS011;3471;49.678;8.388;2022-07-23T14:14:57;10.10;;;4.82;;
6864;SDS011;3471;49.678;8.388;2022-07-23T14:17:22;5.37;;;4.00;;
6864;SDS011;3471;49.678;8.388;2022-07-23T14:19:48;5.53;;;4.53;;
6864;SDS011;3471;49.678;8.388;2022-07-23T14:22:15;35.40;;;33.58;;
6864;SDS011;3471;49.678;8.388;2022-07-23T14:24:41;36.77;;;33.77;;
6864;SDS011;3471;49.678;8.388;2022-07-23T14:27:06;136.98;;;131.65;;
6864;SDS011;3471;49.678;8.388;2022-07-23T14:29:33;89.57;;;85.20;;
6864;SDS011;3471;49.678;8.388;2022-07-23T14:31:59;500.33;;;472.50;;
6864;SDS011;3471;49.678;8.388;2022-07-23T14:34:25;223.07;;;214.52;;
6864;SDS011;3471;49.678;8.388;2022-07-23T14:36:51;439.23;;;417.77;;
6864;SDS011;3471;49.678;8.388;2022-07-23T14:39:19;549.30;;;516.63;;
6864;SDS011;3471;49.678;8.388;2022-07-23T14:41:44;603.88;;;564.45;;
6864;SDS011;3471;49.678;8.388;2022-07-23T14:44:10;535.10;;;503.92;;
6864;SDS011;3471;49.678;8.388;2022-07-23T14:46:36;569.33;;;534.57;;
6864;SDS011;3471;49.678;8.388;2022-07-23T14:49:02;639.30;;;595.95;;
6864;SDS011;3471;49.678;8.388;2022-07-23T14:51:28;697.30;;;648.72;;
6864;SDS011;3471;49.678;8.388;2022-07-23T14:53:53;709.60;;;659.87;;
6864;SDS011;3471;49.678;8.388;2022-07-23T14:56:19;680.43;;;633.53;;
6864;SDS011;3471;49.678;8.388;2022-07-23T14:58:45;606.55;;;567.45;;
6864;SDS011;3471;49.678;8.388;2022-07-23T15:01:10;615.55;;;575.42;;
6864;SDS011;3471;49.678;8.388;2022-07-23T15:03:36;632.80;;;590.60;;
6864;SDS011;3471;49.678;8.388;2022-07-23T15:06:02;626.80;;;585.43;;
6864;SDS011;3471;49.678;8.388;2022-07-23T15:08:28;657.40;;;612.60;;
6864;SDS011;3471;49.678;8.388;2022-07-23T15:10:53;628.88;;;587.40;;
6864;SDS011;3471;49.678;8.388;2022-07-23T15:13:19;697.70;;;649.17;;
6864;SDS011;3471;49.678;8.388;2022-07-23T15:15:44;713.10;;;663.10;;
6864;SDS011;3471;49.678;8.388;2022-07-23T15:18:11;807.30;;;751.25;;
6864;SDS011;3471;49.678;8.388;2022-07-23T15:20:37;924.28;;;860.03;;
6864;SDS011;3471;49.678;8.388;2022-07-23T15:23:03;887.92;;;826.28;;
6864;SDS011;3471;49.678;8.388;2022-07-23T15:25:30;993.05;;;923.35;;
6864;SDS011;3471;49.678;8.388;2022-07-23T15:27:56;949.53;;;883.40;;
6864;SDS011;3471;49.678;8.388;2022-07-23T15:30:26;902.47;;;839.75;;
6864;SDS011;3471;49.678;8.388;2022-07-23T15:32:52;837.78;;;779.95;;
6864;SDS011;3471;49.678;8.388;2022-07-23T15:35:18;919.28;;;855.63;;
6864;SDS011;3471;49.678;8.388;2022-07-23T15:37:44;520.70;;;491.30;;
6864;SDS011;3471;49.678;8.388;2022-07-23T15:40:10;699.10;;;650.95;;
6864;SDS011;3471;49.678;8.388;2022-07-23T15:42:36;732.50;;;682.33;;
6864;SDS011;3471;49.678;8.388;2022-07-23T15:45:02;801.92;;;746.42;;
6864;SDS011;3471;49.678;8.388;2022-07-23T15:47:29;850.72;;;792.03;;
6864;SDS011;3471;49.678;8.388;2022-07-23T15:49:56;843.38;;;785.28;;
6864;SDS011;3471;49.678;8.388;2022-07-23T15:52:22;907.53;;;844.78;;
6864;SDS011;3471;49.678;8.388;2022-07-23T15:54:48;919.00;;;855.38;;
6864;SDS011;3471;49.678;8.388;2022-07-23T15:57:13;870.67;;;810.78;;
6864;SDS011;3471;49.678;8.388;2022-07-23T15:59:39;938.50;;;873.60;;
6864;SDS011;3471;49.678;8.388;2022-07-23T16:02:05;915.72;;;852.47;;
6864;SDS011;3471;49.678;8.388;2022-07-23T16:04:31;971.05;;;903.50;;
6864;SDS011;3471;49.678;8.388;2022-07-23T16:06:57;935.08;;;870.30;;
6864;SDS011;3471;49.678;8.388;2022-07-23T16:09:24;937.78;;;872.92;;
6864;SDS011;3471;49.678;8.388;2022-07-23T16:11:50;932.90;;;868.47;;